Terminal Aerodrome Forecast
Issued by NWS Charleston, WV

Current Version | Previous Version | Text Only | Print | Product List | Glossary Off
Versions: 1 2 3 4 5 6 7 8 9 10 11 12 13 14 15 16 17 18 19 20 21 22 23 24 25 26 27 28 29 30

000
FTUS41 KRLX 051510 AAA
TAFHTS
TAF AMD
KHTS 051510Z 0515/0612 13004KT P6SM BKN060
     FM051600 09004KT 6SM SHRA OVC045
     FM060700 00000KT 5SM BR OVC045
     FM061100 00000KT 2SM BR OVC035=

USA.gov is the U.S. government's official web portal to all federal, state and local government web resources and services.